sensor_id;sensor_type;location;lat;lon;timestamp;pressure;altitude;pressure_sealevel;temperature;humidity
67545;BME280;54380;47.770;11.150;2024-01-07T00:01:19;93996.69;;;3.43;67.69
67545;BME280;54380;47.770;11.150;2024-01-07T00:03:47;93991.69;;;3.42;67.52
67545;BME280;54380;47.770;11.150;2024-01-07T00:06:14;93989.91;;;3.42;67.33
67545;BME280;54380;47.770;11.150;2024-01-07T00:08:40;93996.69;;;3.43;67.39
67545;BME280;54380;47.770;11.150;2024-01-07T00:11:07;93992.50;;;3.42;67.92
67545;BME280;54380;47.770;11.150;2024-01-07T00:13:34;93993.50;;;3.41;68.09
67545;BME280;54380;47.770;11.150;2024-01-07T00:16:01;93984.13;;;3.40;67.73
67545;BME280;54380;47.770;11.150;2024-01-07T00:18:29;93990.13;;;3.41;67.39
67545;BME280;54380;47.770;11.150;2024-01-07T00:20:56;93990.13;;;3.41;68.04
67545;BME280;54380;47.770;11.150;2024-01-07T00:23:23;93993.75;;;3.40;67.79
67545;BME280;54380;47.770;11.150;2024-01-07T00:25:51;93998.53;;;3.43;67.99
67545;BME280;54380;47.770;11.150;2024-01-07T00:28:17;93992.06;;;3.45;67.46
67545;BME280;54380;47.770;11.150;2024-01-07T00:30:44;93996.44;;;3.45;67.29
67545;BME280;54380;47.770;11.150;2024-01-07T00:33:11;93991.47;;;3.43;67.18
67545;BME280;54380;47.770;11.150;2024-01-07T00:35:40;93992.72;;;3.41;67.67
67545;BME280;54380;47.770;11.150;2024-01-07T00:38:07;93998.97;;;3.40;67.73
67545;BME280;54380;47.770;11.150;2024-01-07T00:40:34;93996.59;;;3.38;67.88
67545;BME280;54380;47.770;11.150;2024-01-07T00:43:01;93996.38;;;3.40;67.42
67545;BME280;54380;47.770;11.150;2024-01-07T00:45:28;93992.16;;;3.39;67.66
67545;BME280;54380;47.770;11.150;2024-01-07T00:47:55;93996.59;;;3.38;68.17
67545;BME280;54380;47.770;11.150;2024-01-07T00:50:22;93997.16;;;3.40;67.87
67545;BME280;54380;47.770;11.150;2024-01-07T00:52:50;94002.13;;;3.42;67.91
67545;BME280;54380;47.770;11.150;2024-01-07T00:55:18;93995.91;;;3.43;67.81
67545;BME280;54380;47.770;11.150;2024-01-07T00:57:44;93996.13;;;3.41;67.48
67545;BME280;54380;47.770;11.150;2024-01-07T01:00:12;93997.16;;;3.40;67.41
67545;BME280;54380;47.770;11.150;2024-01-07T01:02:39;93996.13;;;3.41;68.08
67545;BME280;54380;47.770;11.150;2024-01-07T01:05:07;94000.09;;;3.44;68.04
67545;BME280;54380;47.770;11.150;2024-01-07T01:07:34;93999.06;;;3.45;67.79
67545;BME280;54380;47.770;11.150;2024-01-07T01:10:03;94003.72;;;3.43;67.19
67545;BME280;54380;47.770;11.150;2024-01-07T01:12:29;94004.97;;;3.40;67.85
67545;BME280;54380;47.770;11.150;2024-01-07T01:14:56;94007.00;;;3.38;67.58
67545;BME280;54380;47.770;11.150;2024-01-07T01:17:23;94005.44;;;3.37;67.71
67545;BME280;54380;47.770;11.150;2024-01-07T01:19:50;94009.16;;;3.41;67.59
67545;BME280;54380;47.770;11.150;2024-01-07T01:22:17;94007.13;;;3.43;67.07
67545;BME280;54380;47.770;11.150;2024-01-07T01:24:44;94015.75;;;3.44;67.21
67545;BME280;54380;47.770;11.150;2024-01-07T01:27:14;94012.56;;;3.42;67.95
67545;BME280;54380;47.770;11.150;2024-01-07T01:29:41;94010.78;;;3.42;67.71
67545;BME280;54380;47.770;11.150;2024-01-07T01:32:08;94006.56;;;3.41;67.72
67545;BME280;54380;47.770;11.150;2024-01-07T01:34:35;94011.00;;;3.41;67.55
67545;BME280;54380;47.770;11.150;2024-01-07T01:37:02;94004.97;;;3.40;67.61
67545;BME280;54380;47.770;11.150;2024-01-07T01:39:28;94008.94;;;3.43;67.70
67545;BME280;54380;47.770;11.150;2024-01-07T01:41:56;94004.72;;;3.42;67.60
67545;BME280;54380;47.770;11.150;2024-01-07T01:44:25;94008.38;;;3.41;67.93
67545;BME280;54380;47.770;11.150;2024-01-07T01:46:54;94005.56;;;3.42;67.16
67545;BME280;54380;47.770;11.150;2024-01-07T01:49:22;94005.56;;;3.42;67.37
67545;BME280;54380;47.770;11.150;2024-01-07T01:51:49;94006.56;;;3.41;67.72
67545;BME280;54380;47.770;11.150;2024-01-07T01:54:17;94000.56;;;3.41;68.00
67545;BME280;54380;47.770;11.150;2024-01-07T01:56:43;94002.38;;;3.40;67.83
67545;BME280;54380;47.770;11.150;2024-01-07T01:59:10;94005.19;;;3.39;67.65
67545;BME280;54380;47.770;11.150;2024-01-07T02:01:38;93996.59;;;3.38;67.54
67545;BME280;54380;47.770;11.150;2024-01-07T02:04:06;94001.81;;;3.38;67.64
67545;BME280;54380;47.770;11.150;2024-01-07T02:06:33;94000.22;;;3.37;67.66
67545;BME280;54380;47.770;11.150;2024-01-07T02:09:01;94006.22;;;3.38;67.45
67545;BME280;54380;47.770;11.150;2024-01-07T02:11:27;94004.41;;;3.38;67.37
67545;BME280;54380;47.770;11.150;2024-01-07T02:13:54;94000.56;;;3.41;67.53
67545;BME280;54380;47.770;11.150;2024-01-07T02:16:22;93999.53;;;3.42;67.20
67545;BME280;54380;47.770;11.150;2024-01-07T02:18:50;93998.16;;;3.39;67.52
67545;BME280;54380;47.770;11.150;2024-01-07T02:21:17;93998.16;;;3.39;67.94
67545;BME280;54380;47.770;11.150;2024-01-07T02:23:44;93999.19;;;3.38;67.98
67545;BME280;54380;47.770;11.150;2024-01-07T02:26:12;93995.78;;;3.38;67.53
67545;BME280;54380;47.770;11.150;2024-01-07T02:28:39;93996.78;;;3.37;67.39
67545;BME280;54380;47.770;11.150;2024-01-07T02:31:06;93996.38;;;3.40;68.12
67545;BME280;54380;47.770;11.150;2024-01-07T02:33:33;93992.72;;;3.41;67.66
67545;BME280;54380;47.770;11.150;2024-01-07T02:36:01;93996.13;;;3.41;67.52
67545;BME280;54380;47.770;11.150;2024-01-07T02:38:27;93998.16;;;3.39;67.56
67545;BME280;54380;47.770;11.150;2024-01-07T02:40:54;93997.63;;;3.37;67.88
67545;BME280;54380;47.770;11.150;2024-01-07T02:43:22;93999.41;;;3.37;67.92
67545;BME280;54380;47.770;11.150;2024-01-07T02:45:49;93995.22;;;3.36;67.88
67545;BME280;54380;47.770;11.150;2024-01-07T02:48:16;93997.63;;;3.37;67.76
67545;BME280;54380;47.770;11.150;2024-01-07T02:50:43;93994.53;;;3.40;67.34
67545;BME280;54380;47.770;11.150;2024-01-07T02:53:09;93997.94;;;3.41;67.46
67545;BME280;54380;47.770;11.150;2024-01-07T02:55:38;93995.13;;;3.42;67.70
67545;BME280;54380;47.770;11.150;2024-01-07T02:58:06;93986.72;;;3.40;67.54
67545;BME280;54380;47.770;11.150;2024-01-07T03:00:35;93995.34;;;3.41;67.64
67545;BME280;54380;47.770;11.150;2024-01-07T03:03:02;93986.72;;;3.40;67.53
67545;BME280;54380;47.770;11.150;2024-01-07T03:05:28;93993.50;;;3.41;67.69
67545;BME280;54380;47.770;11.150;2024-01-07T03:07:59;93983.88;;;3.42;67.57
67545;BME280;54380;47.770;11.150;2024-01-07T03:10:26;93982.28;;;3.41;67.13
67545;BME280;54380;47.770;11.150;2024-01-07T03:12:53;93987.97;;;3.38;67.34
67545;BME280;54380;47.770;11.150;2024-01-07T03:15:20;93985.56;;;3.36;67.35
67545;BME280;54380;47.770;11.150;2024-01-07T03:17:49;93990.00;;;3.36;67.48
67545;BME280;54380;47.770;11.150;2024-01-07T03:20:16;93989.22;;;3.35;67.90
67545;BME280;54380;47.770;11.150;2024-01-07T03:22:43;93996.25;;;3.35;67.93
67545;BME280;54380;47.770;11.150;2024-01-07T03:25:10;93994.44;;;3.35;67.86
67545;BME280;54380;47.770;11.150;2024-01-07T03:27:37;93996.25;;;3.35;67.95
67545;BME280;54380;47.770;11.150;2024-01-07T03:30:04;93996.78;;;3.37;67.80
67545;BME280;54380;47.770;11.150;2024-01-07T03:32:31;93996.78;;;3.37;68.04
67545;BME280;54380;47.770;11.150;2024-01-07T03:34:59;93994.44;;;3.35;67.65
67545;BME280;54380;47.770;11.150;2024-01-07T03:37:26;93995.44;;;3.34;67.60
67545;BME280;54380;47.770;11.150;2024-01-07T03:39:53;93997.25;;;3.34;67.30
67545;BME280;54380;47.770;11.150;2024-01-07T03:42:19;93992.28;;;3.32;67.57
67545;BME280;54380;47.770;11.150;2024-01-07T03:44:46;93994.88;;;3.32;67.77
67545;BME280;54380;47.770;11.150;2024-01-07T03:47:13;93997.50;;;3.32;67.90
67545;BME280;54380;47.770;11.150;2024-01-07T03:49:40;93988.63;;;3.33;68.00
67545;BME280;54380;47.770;11.150;2024-01-07T03:52:08;93993.06;;;3.33;67.82
67545;BME280;54380;47.770;11.150;2024-01-07T03:54:35;93988.19;;;3.36;68.20
67545;BME280;54380;47.770;11.150;2024-01-07T03:57:02;93993.19;;;3.38;67.83
67545;BME280;54380;47.770;11.150;2024-01-07T03:59:29;93990.56;;;3.38;68.01
67545;BME280;54380;47.770;11.150;2024-01-07T04:01:56;94000.22;;;3.37;67.61
67545;BME280;54380;47.770;11.150;2024-01-07T04:04:23;93996.00;;;3.36;67.68
67545;BME280;54380;47.770;11.150;2024-01-07T04:06:50;93996.25;;;3.35;68.02
67545;BME280;54380;47.770;11.150;2024-01-07T04:09:18;93993.84;;;3.33;67.83
67545;BME280;54380;47.770;11.150;2024-01-07T04:11:45;93998.28;;;3.33;68.19
67545;BME280;54380;47.770;11.150;2024-01-07T04:14:13;94006.09;;;3.33;68.26
67545;BME280;54380;47.770;11.150;2024-01-07T04:16:40;94007.13;;;3.32;67.48
67545;BME280;54380;47.770;11.150;2024-01-07T04:19:07;94000.91;;;3.33;67.64
67545;BME280;54380;47.770;11.150;2024-01-07T04:21:34;94001.47;;;3.35;67.90
67545;BME280;54380;47.770;11.150;2024-01-07T04:24:02;94000.44;;;3.36;67.91
67545;BME280;54380;47.770;11.150;2024-01-07T04:26:31;94001.47;;;3.35;67.57
67545;BME280;54380;47.770;11.150;2024-01-07T04:28:57;94002.47;;;3.34;67.40
67545;BME280;54380;47.770;11.150;2024-01-07T04:31:24;94000.91;;;3.33;67.90
67545;BME280;54380;47.770;11.150;2024-01-07T04:33:51;94007.13;;;3.32;67.69
67545;BME280;54380;47.770;11.150;2024-01-07T04:36:18;94005.75;;;3.29;67.74
67545;BME280;54380;47.770;11.150;2024-01-07T04:38:44;94005.53;;;3.30;68.09
67545;BME280;54380;47.770;11.150;2024-01-07T04:41:11;94009.50;;;3.33;67.56
67545;BME280;54380;47.770;11.150;2024-01-07T04:43:40;94017.34;;;3.33;68.04
67545;BME280;54380;47.770;11.150;2024-01-07T04:46:08;94014.81;;;3.26;68.26
67545;BME280;54380;47.770;11.150;2024-01-07T04:48:37;94015.63;;;3.27;67.62
67545;BME280;54380;47.770;11.150;2024-01-07T04:51:04;94024.25;;;3.27;68.33
67545;BME280;54380;47.770;11.150;2024-01-07T04:53:31;94020.59;;;3.28;67.83
67545;BME280;54380;47.770;11.150;2024-01-07T04:55:58;94024.00;;;3.29;68.07
67545;BME280;54380;47.770;11.150;2024-01-07T04:58:24;94027.19;;;3.31;68.01
67545;BME280;54380;47.770;11.150;2024-01-07T05:00:53;94025.94;;;3.34;67.75
67545;BME280;54380;47.770;11.150;2024-01-07T05:03:20;94028.34;;;3.35;67.90
67545;BME280;54380;47.770;11.150;2024-01-07T05:05:47;94027.31;;;3.36;67.82
67545;BME280;54380;47.770;11.150;2024-01-07T05:08:14;94033.31;;;3.37;67.57
67545;BME280;54380;47.770;11.150;2024-01-07T05:10:40;94029.13;;;3.36;67.52
67545;BME280;54380;47.770;11.150;2024-01-07T05:13:07;94040.22;;;3.31;67.37
67545;BME280;54380;47.770;11.150;2024-01-07T05:15:34;94039.44;;;3.30;67.94
67545;BME280;54380;47.770;11.150;2024-01-07T05:18:04;94029.78;;;3.31;67.60
67545;BME280;54380;47.770;11.150;2024-01-07T05:20:33;94033.19;;;3.32;68.29
67545;BME280;54380;47.770;11.150;2024-01-07T05:23:00;94035.38;;;3.35;67.85
67545;BME280;54380;47.770;11.150;2024-01-07T05:25:27;94032.78;;;3.35;67.46
67545;BME280;54380;47.770;11.150;2024-01-07T05:27:53;94029.34;;;3.34;67.57
67545;BME280;54380;47.770;11.150;2024-01-07T05:30:20;94030.38;;;3.33;67.42
67545;BME280;54380;47.770;11.150;2024-01-07T05:32:49;94039.00;;;3.34;68.21
67545;BME280;54380;47.770;11.150;2024-01-07T05:35:17;94036.63;;;3.32;68.04
67545;BME280;54380;47.770;11.150;2024-01-07T05:37:44;94036.63;;;3.32;68.01
67545;BME280;54380;47.770;11.150;2024-01-07T05:40:10;94039.44;;;3.30;67.95
67545;BME280;54380;47.770;11.150;2024-01-07T05:42:37;94042.84;;;3.31;68.29
67545;BME280;54380;47.770;11.150;2024-01-07T05:45:04;94039.44;;;3.30;67.63
67545;BME280;54380;47.770;11.150;2024-01-07T05:47:31;94040.47;;;3.29;67.53
67545;BME280;54380;47.770;11.150;2024-01-07T05:49:58;94045.69;;;3.29;68.17
67545;BME280;54380;47.770;11.150;2024-01-07T05:52:26;94047.47;;;3.29;67.66
67545;BME280;54380;47.770;11.150;2024-01-07T05:54:53;94048.31;;;3.29;68.33
67545;BME280;54380;47.770;11.150;2024-01-07T05:57:20;94049.09;;;3.30;67.54
67545;BME280;54380;47.770;11.150;2024-01-07T05:59:47;94056.13;;;3.29;67.93
67545;BME280;54380;47.770;11.150;2024-01-07T06:02:17;94059.53;;;3.30;67.66
67545;BME280;54380;47.770;11.150;2024-01-07T06:04:44;94052.47;;;3.30;68.37
67545;BME280;54380;47.770;11.150;2024-01-07T06:07:11;94057.69;;;3.30;67.78
67545;BME280;54380;47.770;11.150;2024-01-07T06:09:39;94064.50;;;3.32;68.16
67545;BME280;54380;47.770;11.150;2024-01-07T06:12:06;94062.72;;;3.32;67.99
67545;BME280;54380;47.770;11.150;2024-01-07T06:14:33;94061.88;;;3.32;67.85
67545;BME280;54380;47.770;11.150;2024-01-07T06:17:00;94061.09;;;3.31;68.14
67545;BME280;54380;47.770;11.150;2024-01-07T06:19:27;94061.69;;;3.33;67.46
67545;BME280;54380;47.770;11.150;2024-01-07T06:21:54;94061.69;;;3.33;67.57
67545;BME280;54380;47.770;11.150;2024-01-07T06:24:21;94064.50;;;3.32;67.51
67545;BME280;54380;47.770;11.150;2024-01-07T06:26:49;94062.13;;;3.30;67.62
67545;BME280;54380;47.770;11.150;2024-01-07T06:29:16;94061.34;;;3.29;68.08
67545;BME280;54380;47.770;11.150;2024-01-07T06:31:43;94065.75;;;3.29;67.70
67545;BME280;54380;47.770;11.150;2024-01-07T06:34:11;94066.56;;;3.29;67.87
67545;BME280;54380;47.770;11.150;2024-01-07T06:36:40;94066.78;;;3.28;68.05
67545;BME280;54380;47.770;11.150;2024-01-07T06:39:09;94063.59;;;3.26;68.17
67545;BME280;54380;47.770;11.150;2024-01-07T06:41:36;94068.81;;;3.26;67.71
67545;BME280;54380;47.770;11.150;2024-01-07T06:44:04;94072.66;;;3.23;67.52
67545;BME280;54380;47.770;11.150;2024-01-07T06:46:31;94064.81;;;3.23;67.77
67545;BME280;54380;47.770;11.150;2024-01-07T06:49:00;94076.06;;;3.24;67.83
67545;BME280;54380;47.770;11.150;2024-01-07T06:51:28;94079.69;;;3.23;67.93
67545;BME280;54380;47.770;11.150;2024-01-07T06:53:55;94082.09;;;3.24;68.31
67545;BME280;54380;47.770;11.150;2024-01-07T06:56:22;94082.88;;;3.25;68.39
67545;BME280;54380;47.770;11.150;2024-01-07T06:58:49;94082.09;;;3.24;68.34
67545;BME280;54380;47.770;11.150;2024-01-07T07:01:19;94082.28;;;3.23;67.56
67545;BME280;54380;47.770;11.150;2024-01-07T07:03:45;94085.69;;;3.23;68.29
67545;BME280;54380;47.770;11.150;2024-01-07T07:06:12;94089.13;;;3.24;68.04
67545;BME280;54380;47.770;11.150;2024-01-07T07:08:39;94097.16;;;3.22;67.68
67545;BME280;54380;47.770;11.150;2024-01-07T07:11:07;94099.75;;;3.22;68.26
67545;BME280;54380;47.770;11.150;2024-01-07T07:13:34;94098.72;;;3.23;68.17
67545;BME280;54380;47.770;11.150;2024-01-07T07:16:03;94096.94;;;3.24;68.26
67545;BME280;54380;47.770;11.150;2024-01-07T07:18:31;94107.38;;;3.24;68.08
67545;BME280;54380;47.770;11.150;2024-01-07T07:20:58;94106.78;;;3.22;67.70
67545;BME280;54380;47.770;11.150;2024-01-07T07:23:25;94108.63;;;3.21;67.65
67545;BME280;54380;47.770;11.150;2024-01-07T07:25:51;94112.22;;;3.20;67.81
67545;BME280;54380;47.770;11.150;2024-01-07T07:28:18;94109.41;;;3.22;68.25
67545;BME280;54380;47.770;11.150;2024-01-07T07:30:45;94113.00;;;3.21;67.86
67545;BME280;54380;47.770;11.150;2024-01-07T07:33:17;94116.66;;;3.20;68.05
67545;BME280;54380;47.770;11.150;2024-01-07T07:35:46;94122.44;;;3.22;68.43
67545;BME280;54380;47.770;11.150;2024-01-07T07:38:13;94122.19;;;3.23;67.89
67545;BME280;54380;47.770;11.150;2024-01-07T07:40:39;94129.03;;;3.24;67.87
67545;BME280;54380;47.770;11.150;2024-01-07T07:43:07;94128.25;;;3.24;67.85
67545;BME280;54380;47.770;11.150;2024-01-07T07:45:34;94132.19;;;3.26;67.70
67545;BME280;54380;47.770;11.150;2024-01-07T07:48:02;94132.19;;;3.26;67.72
67545;BME280;54380;47.770;11.150;2024-01-07T07:50:29;94133.78;;;3.27;68.18
67545;BME280;54380;47.770;11.150;2024-01-07T07:52:57;94139.00;;;3.27;67.94
67545;BME280;54380;47.770;11.150;2024-01-07T07:55:25;94142.84;;;3.25;67.43
67545;BME280;54380;47.770;11.150;2024-01-07T07:57:53;94143.88;;;3.24;68.27
67545;BME280;54380;47.770;11.150;2024-01-07T08:00:20;94141.81;;;3.26;68.00
67545;BME280;54380;47.770;11.150;2024-01-07T08:02:47;94152.84;;;3.28;68.30
67545;BME280;54380;47.770;11.150;2024-01-07T08:05:14;94152.63;;;3.29;67.79
67545;BME280;54380;47.770;11.150;2024-01-07T08:07:41;94157.84;;;3.29;67.62
67545;BME280;54380;47.770;11.150;2024-01-07T08:12:51;94157.47;;;3.26;67.89
67545;BME280;54380;47.770;11.150;2024-01-07T08:15:18;94162.94;;;3.24;68.06
67545;BME280;54380;47.770;11.150;2024-01-07T08:17:45;94161.13;;;3.25;68.09
67545;BME280;54380;47.770;11.150;2024-01-07T08:20:13;94162.47;;;3.27;67.93
67545;BME280;54380;47.770;11.150;2024-01-07T08:22:40;94169.28;;;3.28;67.69
67545;BME280;54380;47.770;11.150;2024-01-07T08:25:07;94174.88;;;3.32;68.10
67545;BME280;54380;47.770;11.150;2024-01-07T08:27:35;94171.44;;;3.32;68.08
67545;BME280;54380;47.770;11.150;2024-01-07T08:30:06;94177.47;;;3.32;67.46
67545;BME280;54380;47.770;11.150;2024-01-07T08:32:37;94177.25;;;3.34;67.73
67545;BME280;54380;47.770;11.150;2024-01-07T08:35:04;94179.84;;;3.34;67.56
67545;BME280;54380;47.770;11.150;2024-01-07T08:37:31;94179.06;;;3.33;67.58
67545;BME280;54380;47.770;11.150;2024-01-07T08:39:59;94179.25;;;3.32;67.62
67545;BME280;54380;47.770;11.150;2024-01-07T08:42:26;94183.47;;;3.33;67.79
67545;BME280;54380;47.770;11.150;2024-01-07T08:44:55;94180.09;;;3.32;68.07
67545;BME280;54380;47.770;11.150;2024-01-07T08:47:30;94189.28;;;3.35;68.04
67545;BME280;54380;47.770;11.150;2024-01-07T08:50:05;94190.41;;;3.39;67.40
67545;BME280;54380;47.770;11.150;2024-01-07T08:52:33;94191.78;;;3.41;67.40
67545;BME280;54380;47.770;11.150;2024-01-07T08:55:02;94186.81;;;3.40;67.74
67545;BME280;54380;47.770;11.150;2024-01-07T08:57:29;94190.19;;;3.40;67.36
67545;BME280;54380;47.770;11.150;2024-01-07T08:59:56;94194.19;;;3.43;67.93
67545;BME280;54380;47.770;11.150;2024-01-07T09:02:26;94205.16;;;3.45;67.41
67545;BME280;54380;47.770;11.150;2024-01-07T09:04:53;94202.56;;;3.45;67.38
67545;BME280;54380;47.770;11.150;2024-01-07T09:07:20;94202.94;;;3.48;67.94
67545;BME280;54380;47.770;11.150;2024-01-07T09:09:48;94213.13;;;3.50;67.86
67545;BME280;54380;47.770;11.150;2024-01-07T09:12:15;94216.91;;;3.54;67.66
67545;BME280;54380;47.770;11.150;2024-01-07T09:14:44;94215.44;;;3.58;67.48
67545;BME280;54380;47.770;11.150;2024-01-07T09:17:10;94216.81;;;3.61;67.01
67545;BME280;54380;47.770;11.150;2024-01-07T09:19:40;94221.59;;;3.64;67.38
67545;BME280;54380;47.770;11.150;2024-01-07T09:22:07;94219.75;;;3.64;67.05
67545;BME280;54380;47.770;11.150;2024-01-07T09:24:34;94224.19;;;3.64;66.99
67545;BME280;54380;47.770;11.150;2024-01-07T09:27:02;94230.41;;;3.63;67.30
67545;BME280;54380;47.770;11.150;2024-01-07T09:29:31;94229.41;;;3.64;67.22
67545;BME280;54380;47.770;11.150;2024-01-07T09:31:58;94231.19;;;3.63;66.80
67545;BME280;54380;47.770;11.150;2024-01-07T09:34:27;94239.84;;;3.64;66.73
67545;BME280;54380;47.770;11.150;2024-01-07T09:36:55;94231.78;;;3.65;66.67
67545;BME280;54380;47.770;11.150;2024-01-07T09:39:23;94233.16;;;3.68;67.03
67545;BME280;54380;47.770;11.150;2024-01-07T09:41:50;94227.47;;;3.71;66.66
67545;BME280;54380;47.770;11.150;2024-01-07T09:44:18;94237.72;;;3.72;66.64
67545;BME280;54380;47.770;11.150;2024-01-07T09:46:44;94240.91;;;3.74;66.58
67545;BME280;54380;47.770;11.150;2024-01-07T09:49:16;94238.63;;;3.78;66.52
67545;BME280;54380;47.770;11.150;2024-01-07T09:51:45;94240.25;;;3.79;67.16
67545;BME280;54380;47.770;11.150;2024-01-07T09:57:05;94241.72;;;3.87;66.93
67545;BME280;54380;47.770;11.150;2024-01-07T09:59:35;94245.13;;;3.87;66.52
67545;BME280;54380;47.770;11.150;2024-01-07T10:02:03;94236.06;;;3.90;66.20
67545;BME280;54380;47.770;11.150;2024-01-07T10:04:31;94246.50;;;3.90;66.05
67545;BME280;54380;47.770;11.150;2024-01-07T10:06:58;94238.31;;;3.86;66.25
67545;BME280;54380;47.770;11.150;2024-01-07T10:09:29;94236.94;;;3.84;66.63
67545;BME280;54380;47.770;11.150;2024-01-07T10:11:55;94239.78;;;3.82;66.08
67545;BME280;54380;47.770;11.150;2024-01-07T10:17:19;94232.75;;;3.83;66.32
67545;BME280;54380;47.770;11.150;2024-01-07T10:19:46;94241.59;;;3.82;66.67
67545;BME280;54380;47.770;11.150;2024-01-07T10:22:14;94239.41;;;3.79;66.27
67545;BME280;54380;47.770;11.150;2024-01-07T10:24:43;94242.47;;;3.76;66.76
67545;BME280;54380;47.770;11.150;2024-01-07T10:27:10;94240.13;;;3.74;66.11
67545;BME280;54380;47.770;11.150;2024-01-07T10:29:41;94244.31;;;3.75;66.04
67545;BME280;54380;47.770;11.150;2024-01-07T10:32:08;94247.94;;;3.74;65.86
67545;BME280;54380;47.770;11.150;2024-01-07T10:37:37;94250.41;;;3.69;66.48
67545;BME280;54380;47.770;11.150;2024-01-07T10:40:05;94250.84;;;3.66;66.70
67545;BME280;54380;47.770;11.150;2024-01-07T10:42:33;94248.13;;;3.61;66.85
67545;BME280;54380;47.770;11.150;2024-01-07T10:45:02;94251.53;;;3.61;66.47
67545;BME280;54380;47.770;11.150;2024-01-07T10:47:30;94250.50;;;3.62;66.35
67545;BME280;54380;47.770;11.150;2024-01-07T10:50:08;94253.56;;;3.59;66.96
67545;BME280;54380;47.770;11.150;2024-01-07T10:52:39;94253.56;;;3.59;66.73
67545;BME280;54380;47.770;11.150;2024-01-07T10:55:08;94253.22;;;3.56;66.25
67545;BME280;54380;47.770;11.150;2024-01-07T10:57:39;94254.66;;;3.51;66.46
67545;BME280;54380;47.770;11.150;2024-01-07T11:00:09;94251.03;;;3.52;67.33
67545;BME280;54380;47.770;11.150;2024-01-07T11:02:37;94251.03;;;3.52;67.33
67545;BME280;54380;47.770;11.150;2024-01-07T11:05:08;94247.75;;;3.57;67.19
67545;BME280;54380;47.770;11.150;2024-01-07T11:07:41;94254.00;;;3.56;66.84
67545;BME280;54380;47.770;11.150;2024-01-07T11:10:10;94247.75;;;3.57;67.23
67545;BME280;54380;47.770;11.150;2024-01-07T11:12:38;94248.78;;;3.56;66.83
67545;BME280;54380;47.770;11.150;2024-01-07T11:15:05;94245.94;;;3.58;66.84
67545;BME280;54380;47.770;11.150;2024-01-07T11:17:41;94250.28;;;3.64;67.21
67545;BME280;54380;47.770;11.150;2024-01-07T11:20:13;94247.56;;;3.70;66.64
67545;BME280;54380;47.770;11.150;2024-01-07T11:22:46;94243.28;;;3.76;66.67
67545;BME280;54380;47.770;11.150;2024-01-07T11:25:29;94246.81;;;3.82;66.36
67545;BME280;54380;47.770;11.150;2024-01-07T11:27:57;94245.94;;;3.88;66.54
67545;BME280;54380;47.770;11.150;2024-01-07T11:30:25;94243.06;;;3.89;65.79
67545;BME280;54380;47.770;11.150;2024-01-07T11:32:58;94243.31;;;3.88;66.28
67545;BME280;54380;47.770;11.150;2024-01-07T11:38:13;94243.31;;;3.88;66.04
67545;BME280;54380;47.770;11.150;2024-01-07T11:40:40;94243.91;;;3.90;66.46
67545;BME280;54380;47.770;11.150;2024-01-07T11:43:07;94234.81;;;3.92;66.54
67545;BME280;54380;47.770;11.150;2024-01-07T11:45:34;94246.06;;;3.93;65.94
67545;BME280;54380;47.770;11.150;2024-01-07T11:48:01;94235.81;;;3.91;66.51
67545;BME280;54380;47.770;11.150;2024-01-07T11:50:29;94242.66;;;3.92;65.74
67545;BME280;54380;47.770;11.150;2024-01-07T11:52:56;94247.06;;;3.92;65.90
67545;BME280;54380;47.770;11.150;2024-01-07T11:55:24;94249.44;;;3.93;66.37
67545;BME280;54380;47.770;11.150;2024-01-07T11:57:52;94253.66;;;3.94;66.08
67545;BME280;54380;47.770;11.150;2024-01-07T12:00:19;94250.03;;;3.95;65.92
67545;BME280;54380;47.770;11.150;2024-01-07T12:02:46;94242.06;;;3.90;65.42
67545;BME280;54380;47.770;11.150;2024-01-07T12:05:13;94245.13;;;3.87;65.80
67545;BME280;54380;47.770;11.150;2024-01-07T12:07:42;94253.19;;;3.86;66.46
67545;BME280;54380;47.770;11.150;2024-01-07T12:10:08;94246.94;;;3.87;65.85
67545;BME280;54380;47.770;11.150;2024-01-07T12:12:40;94247.28;;;3.90;66.33
67545;BME280;54380;47.770;11.150;2024-01-07T12:15:07;94243.19;;;3.94;66.29
67545;BME280;54380;47.770;11.150;2024-01-07T12:17:34;94250.03;;;3.95;65.46
67545;BME280;54380;47.770;11.150;2024-01-07T12:20:01;94249.00;;;3.96;65.43
67545;BME280;54380;47.770;11.150;2024-01-07T12:22:31;94253.44;;;3.96;65.54
67545;BME280;54380;47.770;11.150;2024-01-07T12:25:01;94253.78;;;4.00;66.25
67545;BME280;54380;47.770;11.150;2024-01-07T12:27:28;94253.56;;;4.01;66.04
67545;BME280;54380;47.770;11.150;2024-01-07T12:29:58;94258.53;;;4.03;65.44
67545;BME280;54380;47.770;11.150;2024-01-07T12:32:25;94263.34;;;4.06;65.76
67545;BME280;54380;47.770;11.150;2024-01-07T12:34:52;94254.69;;;4.05;65.75
67545;BME280;54380;47.770;11.150;2024-01-07T12:37:19;94255.72;;;4.04;65.10
67545;BME280;54380;47.770;11.150;2024-01-07T12:39:46;94264.47;;;3.98;65.62
67545;BME280;54380;47.770;11.150;2024-01-07T12:42:13;94262.31;;;3.95;65.30
67545;BME280;54380;47.770;11.150;2024-01-07T12:44:40;94264.09;;;3.94;65.45
67545;BME280;54380;47.770;11.150;2024-01-07T12:47:08;94264.09;;;3.94;65.61
67545;BME280;54380;47.770;11.150;2024-01-07T12:49:34;94262.06;;;3.96;65.86
67545;BME280;54380;47.770;11.150;2024-01-07T12:52:01;94267.06;;;3.98;65.25
67545;BME280;54380;47.770;11.150;2024-01-07T12:54:28;94270.47;;;3.99;65.12
67545;BME280;54380;47.770;11.150;2024-01-07T12:56:54;94261.03;;;3.97;65.76
67545;BME280;54380;47.770;11.150;2024-01-07T12:59:21;94268.31;;;3.95;65.61
67545;BME280;54380;47.770;11.150;2024-01-07T13:01:48;94271.72;;;3.96;65.86
67545;BME280;54380;47.770;11.150;2024-01-07T13:04:19;94270.69;;;3.97;65.54
67545;BME280;54380;47.770;11.150;2024-01-07T13:06:46;94275.91;;;3.97;65.70
67545;BME280;54380;47.770;11.150;2024-01-07T13:09:13;94281.56;;;3.94;65.55
67545;BME280;54380;47.770;11.150;2024-01-07T13:11:40;94282.81;;;3.91;65.38
67545;BME280;54380;47.770;11.150;2024-01-07T13:14:06;94288.94;;;3.85;65.56
67545;BME280;54380;47.770;11.150;2024-01-07T13:16:34;94286.78;;;3.82;65.89